Time;durP1;ratioP1;P1;durP2;ratioP2;P2;SDS_P1;SDS_P2;PMS_P1;PMS_P2;Temp;Humidity;BMP_temperature;BMP_pressure;BME280_temperature;BME280_humidity;BME280_pressure;Samples;Min_cycle;Max_cycle;Signal;HPM_P1;HPM_P2
2022/07/16 00:02:58;;;;;;;5.40;3.80;;;;;;;19.93;60.17;101089.52;106132;1260;58828;-73
2022/07/16 00:05:27;;;;;;;6.00;3.50;;;;;;;19.93;60.35;101093.92;106161;1260;61443;-70
2022/07/16 00:07:57;;;;;;;5.70;3.90;;;;;;;19.91;60.21;101093.23;106208;1260;62753;-72
2022/07/16 00:10:26;;;;;;;5.70;4.00;;;;;;;19.91;59.97;101100.36;106019;1260;62221;-70
2022/07/16 00:12:55;;;;;;;5.10;3.50;;;;;;;19.88;59.72;101105.35;106192;1260;69817;-72
2022/07/16 00:15:23;;;;;;;4.40;3.60;;;;;;;19.89;59.95;101108.10;106154;1260;73512;-73
2022/07/16 00:19:15;;;;;;;4.70;3.40;;;;;;;19.90;60.12;101111.24;105947;1260;59187;-71
2022/07/16 00:20:42;;;;;;;4.40;3.30;;;;;;;19.93;60.39;101110.56;106133;1260;61329;-70
2022/07/16 00:23:11;;;;;;;6.80;3.70;;;;;;;19.94;60.73;101109.62;106066;1260;72699;-72
2022/07/16 00:25:39;;;;;;;7.60;3.90;;;;;;;19.92;60.59;101107.32;105991;1263;72067;-71
2022/07/16 00:28:08;;;;;;;5.10;3.70;;;;;;;19.87;60.64;101109.23;106176;1260;60924;-73
2022/07/16 00:30:37;;;;;;;4.80;4.00;;;;;;;19.81;60.63;101103.64;106192;1260;74329;-72
2022/07/16 00:33:06;;;;;;;4.80;3.60;;;;;;;19.79;60.59;101099.13;106167;1262;59148;-72
2022/07/16 00:35:35;;;;;;;5.50;4.00;;;;;;;19.75;60.38;101097.89;106265;1260;57377;-72
2022/07/16 00:38:04;;;;;;;5.60;4.10;;;;;;;19.73;61.24;101096.75;106274;1260;63078;-72
2022/07/16 00:40:33;;;;;;;4.70;3.90;;;;;;;19.70;61.47;101100.42;106260;1260;72352;-72
2022/07/16 00:43:02;;;;;;;5.70;3.70;;;;;;;19.66;61.03;101105.05;106084;1263;68421;-72
2022/07/16 00:45:31;;;;;;;7.20;3.60;;;;;;;19.64;60.68;101103.69;106354;1260;62577;-72
2022/07/16 00:48:00;;;;;;;6.10;3.90;;;;;;;19.60;60.99;101103.53;106312;1260;63094;-70
2022/07/16 00:50:29;;;;;;;5.50;3.50;;;;;;;19.56;60.90;101100.95;106364;1260;62174;-72
2022/07/16 00:53:01;;;;;;;5.80;3.70;;;;;;;19.52;61.06;101100.43;106368;1260;74558;-75
2022/07/16 00:55:30;;;;;;;5.30;3.90;;;;;;;19.49;61.53;101101.39;106102;1261;72424;-74
2022/07/16 00:57:59;;;;;;;5.30;3.60;;;;;;;19.46;60.96;101106.90;106217;1260;59397;-71
2022/07/16 01:00:29;;;;;;;5.10;3.50;;;;;;;19.45;61.35;101109.87;106232;1260;62582;-71
2022/07/16 01:03:01;;;;;;;7.40;3.80;;;;;;;19.44;61.41;101113.00;105852;1263;60485;-69
2022/07/16 01:05:29;;;;;;;5.60;4.20;;;;;;;19.46;61.40;101116.52;105855;1263;59025;-71
2022/07/16 01:07:58;;;;;;;5.50;3.70;;;;;;;19.47;62.39;101120.42;105943;1263;73855;-70
2022/07/16 01:10:28;;;;;;;4.80;3.70;;;;;;;19.46;62.43;101119.88;105952;1263;62164;-70
2022/07/16 01:13:02;;;;;;;6.00;4.00;;;;;;;19.43;62.48;101119.42;105988;1263;68874;-70
2022/07/16 01:15:31;;;;;;;5.50;3.90;;;;;;;19.39;61.75;101122.66;105995;1263;74484;-72
2022/07/16 01:17:59;;;;;;;7.60;3.90;;;;;;;19.37;62.16;101120.47;105925;1263;59034;-70
2022/07/16 01:20:28;;;;;;;5.40;3.60;;;;;;;19.33;62.79;101116.53;105857;1263;59083;-71
2022/07/16 01:22:58;;;;;;;6.40;3.50;;;;;;;19.30;63.08;101116.22;105975;1263;63033;-71
2022/07/16 01:25:27;;;;;;;5.90;4.20;;;;;;;19.26;63.67;101115.70;105840;1264;61019;-73
2022/07/16 01:27:56;;;;;;;4.80;3.60;;;;;;;19.22;63.43;101118.92;105972;1263;59954;-73
2022/07/16 01:30:25;;;;;;;5.50;3.90;;;;;;;19.20;62.66;101121.30;105858;1263;73312;-73
2022/07/16 01:32:54;;;;;;;6.20;4.20;;;;;;;19.20;63.22;101125.74;105971;1262;60676;-74
2022/07/16 01:35:22;;;;;;;5.80;4.00;;;;;;;19.19;63.95;101124.38;106003;1263;61970;-76
2022/07/16 01:37:51;;;;;;;7.70;3.80;;;;;;;19.14;64.49;101128.64;105947;1263;63581;-71
2022/07/16 01:40:20;;;;;;;5.70;3.60;;;;;;;19.08;64.79;101126.06;106140;1263;71966;-73
2022/07/16 01:42:48;;;;;;;6.10;3.90;;;;;;;19.03;64.99;101122.46;106011;1263;71096;-70
2022/07/16 01:45:17;;;;;;;5.60;3.80;;;;;;;18.98;65.22;101121.73;106146;1263;63775;-71
2022/07/16 01:47:46;;;;;;;5.20;4.30;;;;;;;18.96;65.14;101118.67;105891;1264;59911;-69
2022/07/16 01:50:15;;;;;;;8.30;4.10;;;;;;;18.91;65.33;101112.39;106029;1263;58363;-70
2022/07/16 01:52:44;;;;;;;5.20;3.60;;;;;;;18.87;65.72;101113.05;106071;1263;72961;-70
2022/07/16 01:55:12;;;;;;;6.90;3.50;;;;;;;18.86;65.29;101116.85;106026;1263;71767;-72
2022/07/16 01:57:41;;;;;;;6.90;3.60;;;;;;;18.82;65.62;101122.53;106096;1263;71463;-72
2022/07/16 02:00:11;;;;;;;7.60;3.90;;;;;;;18.80;64.73;101121.97;106106;1263;63264;-74
2022/07/16 02:02:40;;;;;;;6.20;4.30;;;;;;;18.79;65.30;101122.76;106054;1263;58944;-70
2022/07/16 02:05:09;;;;;;;8.40;3.90;;;;;;;18.77;64.39;101122.44;106058;1264;60457;-75
2022/07/16 02:07:37;;;;;;;6.00;3.90;;;;;;;18.79;64.86;101121.03;105981;1263;73559;-72
2022/07/16 02:10:06;;;;;;;9.20;3.90;;;;;;;18.81;65.04;101124.89;106135;1263;62428;-71
2022/07/16 02:12:35;;;;;;;9.20;4.10;;;;;;;18.76;65.60;101124.02;106052;1263;60133;-72
2022/07/16 02:15:06;;;;;;;5.50;3.70;;;;;;;18.66;65.82;101120.05;106095;1263;63446;-72
2022/07/16 02:17:36;;;;;;;8.30;4.40;;;;;;;18.57;66.40;101120.95;105908;1263;62698;-72
2022/07/16 02:20:08;;;;;;;6.20;3.80;;;;;;;18.52;66.79;101121.98;105972;1264;62002;-72
2022/07/16 02:22:38;;;;;;;6.90;3.90;;;;;;;18.46;67.02;101117.63;106011;1263;73623;-74
2022/07/16 02:25:09;;;;;;;7.70;3.90;;;;;;;18.43;67.16;101124.80;105898;1263;72955;-73
2022/07/16 02:28:05;;;;;;;9.10;4.30;;;;;;;18.39;67.15;101126.06;105771;1264;69960;-73
2022/07/16 02:30:30;;;;;;;7.30;4.20;;;;;;;18.35;67.31;101125.29;106023;1263;63914;-72
2022/07/16 02:33:03;;;;;;;8.30;4.60;;;;;;;18.31;67.68;101128.41;106012;1263;63346;-72
2022/07/16 02:35:33;;;;;;;12.90;4.40;;;;;;;18.22;68.08;101128.91;106026;1263;61976;-73
2022/07/16 02:38:04;;;;;;;7.60;4.50;;;;;;;18.12;68.46;101128.38;106126;1263;74190;-72
2022/07/16 02:40:39;;;;;;;7.40;4.50;;;;;;;18.07;68.61;101128.13;106072;1264;73856;-72
2022/07/16 02:43:14;;;;;;;7.80;4.40;;;;;;;18.05;68.67;101126.40;106007;1263;60421;-71
2022/07/16 02:45:46;;;;;;;7.80;3.90;;;;;;;18.00;68.69;101125.64;105986;1263;74097;-69
2022/07/16 02:48:20;;;;;;;10.30;4.00;;;;;;;17.95;68.53;101132.66;105809;1263;61039;-70
2022/07/16 02:50:51;;;;;;;6.70;4.40;;;;;;;17.88;69.26;101134.56;105930;1263;62067;-71
2022/07/16 02:53:36;;;;;;;14.50;4.90;;;;;;;17.83;69.58;101134.57;106155;1263;63548;-71
2022/07/16 02:56:07;;;;;;;8.20;4.30;;;;;;;17.77;69.68;101138.80;105991;1263;73370;-72
2022/07/16 02:58:37;;;;;;;10.20;4.10;;;;;;;17.74;70.08;101140.84;106180;1263;59773;-73
2022/07/16 03:01:07;;;;;;;7.00;3.70;;;;;;;17.71;69.27;101141.48;106234;1262;74091;-71
2022/07/16 03:03:38;;;;;;;5.90;3.90;;;;;;;17.63;68.47;101141.50;106212;1262;63039;-72
2022/07/16 03:06:15;;;;;;;6.70;3.90;;;;;;;17.51;69.83;101144.29;106189;1261;59437;-74
2022/07/16 03:08:57;;;;;;;7.30;4.20;;;;;;;17.44;69.59;101140.64;106180;1261;63276;-72
2022/07/16 03:11:26;;;;;;;7.30;4.40;;;;;;;17.38;70.46;101141.94;106235;1261;60991;-71
2022/07/16 03:13:57;;;;;;;13.50;5.00;;;;;;;17.36;71.42;101141.79;106239;1261;69896;-72
2022/07/16 03:16:30;;;;;;;9.30;4.30;;;;;;;17.37;70.72;101144.93;106308;1261;71949;-72
2022/07/16 03:19:08;;;;;;;7.90;4.50;;;;;;;17.38;71.09;101150.63;106227;1261;63088;-74
2022/07/16 03:21:45;;;;;;;6.30;4.20;;;;;;;17.40;69.46;101154.20;106227;1261;61264;-71
2022/07/16 03:24:21;;;;;;;5.60;3.80;;;;;;;17.42;70.27;101152.52;106257;1261;74232;-72
2022/07/16 03:26:49;;;;;;;5.80;4.00;;;;;;;17.45;69.82;101153.27;106301;1261;70976;-71
2022/07/16 03:29:18;;;;;;;7.60;4.00;;;;;;;17.48;69.07;101153.64;106257;1261;68873;-73
2022/07/16 03:31:47;;;;;;;10.50;4.70;;;;;;;17.53;69.95;101154.98;106179;1262;74407;-73
2022/07/16 03:34:16;;;;;;;10.80;5.40;;;;;;;17.61;70.73;101146.98;106074;1261;63691;-73
2022/07/16 03:36:45;;;;;;;8.70;5.70;;;;;;;17.71;70.50;101146.23;106077;1264;60472;-70
2022/07/16 03:39:14;;;;;;;9.10;4.60;;;;;;;17.86;70.12;101152.27;106154;1263;73588;-73
2022/07/16 03:41:42;;;;;;;8.70;4.80;;;;;;;17.94;69.53;101149.30;106144;1263;71879;-72
2022/07/16 03:44:12;;;;;;;8.60;5.20;;;;;;;18.06;69.12;101148.50;106127;1263;60536;-73
2022/07/16 03:46:41;;;;;;;21.00;4.90;;;;;;;18.19;68.60;101140.86;106077;1262;75305;-74
2022/07/16 03:49:10;;;;;;;7.70;4.40;;;;;;;18.30;67.86;101138.80;106093;1261;62236;-74
2022/07/16 03:51:39;;;;;;;6.80;4.90;;;;;;;18.39;67.95;101137.56;106107;1261;57452;-73
2022/07/16 03:54:08;;;;;;;7.50;4.70;;;;;;;18.50;67.61;101136.46;106261;1261;62205;-73
2022/07/16 03:56:37;;;;;;;8.60;4.90;;;;;;;18.56;67.34;101131.20;106304;1261;61581;-73
2022/07/16 03:59:06;;;;;;;7.40;5.10;;;;;;;18.64;66.86;101126.21;106133;1263;68953;-71
2022/07/16 04:01:34;;;;;;;9.80;5.20;;;;;;;18.74;66.60;101126.96;106180;1261;73776;-73
2022/07/16 04:04:04;;;;;;;9.60;4.90;;;;;;;18.84;66.11;101124.48;106159;1261;58907;-72
2022/07/16 04:06:33;;;;;;;13.00;6.60;;;;;;;18.92;65.45;101131.23;106303;1261;58978;-77
2022/07/16 04:09:02;;;;;;;12.00;6.30;;;;;;;18.99;65.49;101131.01;106098;1262;63509;-73
2022/07/16 04:11:31;;;;;;;11.00;6.10;;;;;;;19.03;65.24;101128.67;106157;1261;72450;-74
2022/07/16 04:13:59;;;;;;;8.50;5.70;;;;;;;19.02;65.10;101130.30;106025;1261;71080;-71
2022/07/16 04:16:28;;;;;;;11.10;6.10;;;;;;;18.99;65.04;101132.27;106487;1262;73883;-71
2022/07/16 04:18:57;;;;;;;7.30;5.20;;;;;;;18.97;65.21;101132.09;106705;1261;58859;-69
2022/07/16 04:21:26;;;;;;;9.80;5.80;;;;;;;19.03;65.33;101132.91;106251;1262;60666;-68
2022/07/16 04:23:55;;;;;;;9.20;5.40;;;;;;;19.06;64.66;101138.58;106255;1263;74348;-70
2022/07/16 04:26:24;;;;;;;7.80;5.20;;;;;;;19.09;64.61;101136.86;106410;1261;71899;-72
2022/07/16 04:28:53;;;;;;;8.60;6.20;;;;;;;19.15;64.57;101141.63;106008;1263;59863;-73
2022/07/16 04:31:24;;;;;;;9.40;5.40;;;;;;;19.20;64.33;101138.11;106014;1261;65072;-70
2022/07/16 04:33:52;;;;;;;11.60;5.70;;;;;;;19.28;64.14;101137.08;106152;1261;61394;-72
2022/07/16 04:36:21;;;;;;;8.70;5.50;;;;;;;19.41;63.63;101135.25;106111;1262;61265;-71
2022/07/16 04:38:51;;;;;;;8.80;5.10;;;;;;;19.52;63.14;101137.63;106119;1261;74710;-74
2022/07/16 04:41:21;;;;;;;7.80;5.30;;;;;;;19.59;62.69;101133.66;105922;1262;72674;-72
2022/07/16 04:43:49;;;;;;;7.70;5.40;;;;;;;19.69;62.60;101136.36;106105;1261;60412;-72
2022/07/16 04:46:18;;;;;;;8.50;5.10;;;;;;;19.83;62.12;101141.95;106090;1261;63374;-73
2022/07/16 04:48:47;;;;;;;8.90;4.90;;;;;;;19.94;61.67;101148.28;106122;1261;57557;-74
2022/07/16 04:51:16;;;;;;;7.50;4.50;;;;;;;20.01;60.89;101148.60;106094;1261;59151;-73
2022/07/16 04:53:45;;;;;;;5.60;3.80;;;;;;;20.08;60.54;101155.38;106025;1263;73694;-74
2022/07/16 04:56:13;;;;;;;6.50;4.40;;;;;;;20.19;60.37;101159.95;106242;1261;72136;-73
2022/07/16 04:58:42;;;;;;;11.80;4.50;;;;;;;20.19;59.55;101155.91;106140;1261;61075;-69
2022/07/16 05:01:11;;;;;;;5.90;3.90;;;;;;;20.27;59.26;101153.73;106186;1261;63356;-73
2022/07/16 05:03:40;;;;;;;7.10;3.60;;;;;;;20.38;59.33;101153.48;106013;1262;59897;-74
2022/07/16 05:06:09;;;;;;;7.00;3.50;;;;;;;20.47;59.10;101155.01;105705;1263;59926;-73
2022/07/16 05:08:37;;;;;;;6.90;3.80;;;;;;;20.53;58.66;101150.45;106053;1261;74447;-71
2022/07/16 05:11:10;;;;;;;5.00;3.50;;;;;;;20.61;58.52;101153.67;106068;1261;73391;-74
2022/07/16 05:13:38;;;;;;;6.60;4.00;;;;;;;20.71;58.07;101155.41;106097;1261;62087;-71
2022/07/16 05:16:07;;;;;;;5.20;3.60;;;;;;;20.77;57.59;101150.85;106252;1261;63934;-72
2022/07/16 05:18:36;;;;;;;6.80;3.60;;;;;;;20.86;57.28;101152.34;106266;1261;59000;-72
2022/07/16 05:21:05;;;;;;;6.60;3.60;;;;;;;20.96;57.45;101157.60;106192;1261;59585;-76
2022/07/16 05:23:34;;;;;;;6.60;3.60;;;;;;;21.01;57.05;101155.46;106308;1261;64937;-72
2022/07/16 05:26:03;;;;;;;5.00;3.20;;;;;;;21.10;56.73;101157.20;106039;1263;70624;-73
2022/07/16 05:28:32;;;;;;;8.40;3.50;;;;;;;21.14;56.64;101159.86;106072;1262;60124;-75
2022/07/16 05:31:01;;;;;;;7.00;3.30;;;;;;;21.22;56.61;101163.14;106162;1263;74191;-75
2022/07/16 05:33:30;;;;;;;6.60;3.60;;;;;;;21.23;56.05;101164.40;106143;1262;58915;-73
2022/07/16 05:35:58;;;;;;;7.60;3.70;;;;;;;21.32;55.98;101157.73;106136;1263;61415;-78
2022/07/16 05:38:27;;;;;;;4.70;3.60;;;;;;;21.41;56.03;101154.58;106293;1262;63548;-78
2022/07/16 05:40:56;;;;;;;4.50;3.40;;;;;;;21.50;55.65;101150.27;106283;1261;61588;-78
2022/07/16 05:43:25;;;;;;;4.50;3.40;;;;;;;21.61;55.46;101153.09;106274;1261;70251;-74
2022/07/16 05:45:54;;;;;;;6.60;3.70;;;;;;;21.69;54.83;101149.00;106124;1263;63705;-73
2022/07/16 05:48:23;;;;;;;6.00;3.70;;;;;;;21.76;53.92;101142.36;106304;1261;58776;-74
2022/07/16 05:50:55;;;;;;;4.70;3.60;;;;;;;21.85;53.38;101141.84;106244;1261;59231;-74
2022/07/16 05:53:24;;;;;;;6.20;3.70;;;;;;;21.98;53.13;101141.19;106122;1262;63243;-73
2022/07/16 05:55:54;;;;;;;4.90;3.40;;;;;;;21.99;52.68;101139.24;105951;1264;61010;-75
2022/07/16 05:58:23;;;;;;;4.60;3.40;;;;;;;22.06;53.08;101138.61;106101;1262;69898;-75
2022/07/16 06:00:53;;;;;;;5.40;3.70;;;;;;;22.19;52.26;101137.73;105895;1261;73160;-80
2022/07/16 06:03:22;;;;;;;5.30;3.40;;;;;;;22.29;51.76;101135.42;106397;1261;59198;-74
2022/07/16 06:05:51;;;;;;;7.60;3.50;;;;;;;22.35;51.84;101132.79;106288;1261;58311;-78
2022/07/16 06:08:20;;;;;;;5.90;3.70;;;;;;;22.51;51.36;101133.23;106261;1260;63100;-79
2022/07/16 06:10:49;;;;;;;7.20;3.60;;;;;;;22.67;50.71;101134.77;106100;1262;72510;-78
2022/07/16 06:13:17;;;;;;;6.40;3.40;;;;;;;22.79;50.64;101130.58;105986;1262;71177;-74
2022/07/16 06:15:49;;;;;;;5.90;4.00;;;;;;;22.86;50.31;101126.48;106285;1261;72825;-73
2022/07/16 06:18:18;;;;;;;6.30;3.60;;;;;;;22.94;50.16;101125.40;106240;1261;60699;-69
2022/07/16 06:20:47;;;;;;;6.00;3.70;;;;;;;23.01;49.93;101122.67;106186;1263;58370;-68
2022/07/16 06:23:16;;;;;;;5.60;3.50;;;;;;;23.11;49.81;101118.48;105986;1261;73712;-70
2022/07/16 06:25:45;;;;;;;7.00;3.40;;;;;;;23.20;49.01;101116.35;106183;1261;73054;-71
2022/07/16 06:28:14;;;;;;;8.70;3.60;;;;;;;23.35;48.96;101115.02;106143;1261;71076;-80
2022/07/16 06:30:43;;;;;;;6.50;3.50;;;;;;;23.42;48.15;101117.34;106115;1263;65854;-80
2022/07/16 06:33:12;;;;;;;8.60;3.10;;;;;;;23.43;47.73;101113.80;106250;1261;59893;-78
2022/07/16 06:35:43;;;;;;;5.90;4.00;;;;;;;23.47;47.87;101113.44;106627;1261;60360;-83
2022/07/16 06:38:13;;;;;;;7.30;3.70;;;;;;;23.61;47.68;101115.92;106421;1261;74475;-85
2022/07/16 06:40:45;;;;;;;5.30;3.40;;;;;;;23.71;47.33;101113.80;106658;1261;62616;-86
2022/07/16 06:43:14;;;;;;;7.30;3.30;;;;;;;23.83;47.40;101115.62;106901;1262;69683;-74
2022/07/16 06:45:50;;;;;;;7.30;4.00;;;;;;;24.03;47.39;101117.08;106761;1262;73768;-82
2022/07/16 06:48:20;;;;;;;5.80;3.20;;;;;;;24.20;47.55;101112.20;107607;1263;61301;-82
2022/07/16 06:50:54;;;;;;;4.40;3.40;;;;;;;24.30;46.08;101108.44;106190;1263;61020;-80
2022/07/16 06:53:22;;;;;;;6.20;3.20;;;;;;;24.27;46.00;101112.19;106086;1263;74177;-82
2022/07/16 06:55:51;;;;;;;5.70;2.80;;;;;;;24.35;45.36;101112.02;106340;1261;61651;-80
2022/07/16 06:58:20;;;;;;;10.20;5.80;;;;;;;24.46;45.62;101112.01;106105;1263;59327;-79
2022/07/16 07:00:49;;;;;;;4.80;2.90;;;;;;;24.61;45.46;101108.57;106090;1264;72796;-78
2022/07/16 07:03:17;;;;;;;5.00;3.10;;;;;;;24.71;45.06;101107.48;106066;1263;62903;-80
2022/07/16 07:05:46;;;;;;;5.00;3.40;;;;;;;24.76;44.88;101105.36;106089;1263;61758;-80
2022/07/16 07:08:15;;;;;;;5.90;3.40;;;;;;;24.79;44.79;101106.05;106164;1261;64683;-77
2022/07/16 07:10:44;;;;;;;7.40;3.70;;;;;;;24.95;44.68;101104.58;106346;1261;72297;-76
2022/07/16 07:13:13;;;;;;;7.80;3.90;;;;;;;25.02;44.23;101112.08;106203;1261;70448;-77
2022/07/16 07:15:42;;;;;;;6.20;3.40;;;;;;;25.07;43.76;101110.84;106331;1261;63821;-74
2022/07/16 07:18:11;;;;;;;7.10;3.40;;;;;;;24.89;43.81;101108.33;106308;1261;59076;-75
2022/07/16 07:20:40;;;;;;;5.50;2.90;;;;;;;24.97;43.97;101104.11;106364;1261;59300;-76
2022/07/16 07:23:10;;;;;;;5.70;3.00;;;;;;;25.13;43.96;101103.52;106317;1261;73425;-79
2022/07/16 07:25:39;;;;;;;9.70;3.40;;;;;;;25.18;43.34;101103.23;106221;1261;72205;-76
2022/07/16 07:28:10;;;;;;;6.80;3.10;;;;;;;25.05;43.31;101098.52;106277;1261;61941;-76
2022/07/16 07:30:40;;;;;;;6.90;3.10;;;;;;;25.17;43.54;101103.30;106251;1261;74067;-74
2022/07/16 07:33:09;;;;;;;5.50;2.90;;;;;;;25.44;42.77;101106.30;106031;1263;59044;-77
2022/07/16 07:35:39;;;;;;;5.20;3.00;;;;;;;25.68;42.39;101104.79;106209;1262;58972;-85
2022/07/16 07:38:08;;;;;;;4.40;3.30;;;;;;;25.85;41.92;101101.65;106274;1263;62440;-74
2022/07/16 07:40:40;;;;;;;7.70;3.20;;;;;;;25.98;42.01;101097.15;106280;1263;72135;-78
2022/07/16 07:43:09;;;;;;;5.00;2.80;;;;;;;26.06;41.23;101096.26;106035;1263;60533;-78
2022/07/16 07:45:41;;;;;;;4.80;3.10;;;;;;;25.94;41.68;101093.07;106020;1263;74017;-86
2022/07/16 07:48:10;;;;;;;5.20;3.10;;;;;;;26.00;41.97;101087.45;106212;1261;60994;-76
2022/07/16 07:50:39;;;;;;;5.80;2.70;;;;;;;26.10;41.54;101087.70;106290;1261;61838;-75
2022/07/16 07:53:08;;;;;;;6.40;2.90;;;;;;;26.21;41.00;101083.55;106095;1263;72482;-76
2022/07/16 07:55:37;;;;;;;5.60;3.10;;;;;;;26.27;40.33;101080.44;106122;1263;71437;-75
2022/07/16 07:58:06;;;;;;;5.10;3.20;;;;;;;26.25;40.28;101078.95;106291;1261;69676;-79
2022/07/16 08:00:35;;;;;;;5.30;3.20;;;;;;;26.11;40.62;101077.41;106304;1261;64875;-76
2022/07/16 08:03:09;;;;;;;5.00;3.20;;;;;;;26.24;40.30;101073.84;106281;1261;58982;-74
2022/07/16 08:05:38;;;;;;;6.90;3.30;;;;;;;26.38;40.09;101067.84;106119;1261;60623;-75
2022/07/16 08:08:07;;;;;;;5.60;3.80;;;;;;;26.44;39.78;101066.91;106079;1261;63701;-77
2022/07/16 08:10:36;;;;;;;6.00;2.90;;;;;;;26.49;39.31;101063.70;106223;1263;70949;-77
2022/07/16 08:13:05;;;;;;;5.40;2.90;;;;;;;26.46;39.18;101060.52;106331;1261;70667;-75
2022/07/16 08:15:34;;;;;;;6.00;2.60;;;;;;;26.60;38.25;101055.12;106104;1262;64657;-77
2022/07/16 08:18:03;;;;;;;5.70;3.00;;;;;;;26.78;38.21;101056.78;106270;1261;58858;-74
2022/07/16 08:20:32;;;;;;;4.70;3.30;;;;;;;26.99;38.38;101056.89;106280;1261;61360;-76
2022/07/16 08:23:01;;;;;;;7.10;3.40;;;;;;;27.23;37.79;101064.15;106122;1261;74330;-76
2022/07/16 08:25:44;;;;;;;3.90;2.80;;;;;;;27.38;37.00;101065.41;106299;1261;63554;-76
2022/07/16 08:28:15;;;;;;;4.30;2.90;;;;;;;27.49;35.68;101065.07;106032;1263;59353;-77
2022/07/16 08:30:44;;;;;;;4.40;2.60;;;;;;;27.67;34.62;101066.02;106118;1262;74046;-77
2022/07/16 08:33:12;;;;;;;4.70;2.80;;;;;;;27.68;34.07;101066.80;106144;1262;61249;-76
2022/07/16 08:35:41;;;;;;;6.10;3.30;;;;;;;27.70;34.24;101067.49;106238;1261;62139;-76
2022/07/16 08:38:10;;;;;;;4.50;2.80;;;;;;;27.57;34.11;101063.91;106282;1261;63565;-74
2022/07/16 08:40:42;;;;;;;3.20;2.30;;;;;;;27.83;34.26;101060.98;106323;1261;61718;-78
2022/07/16 08:43:13;;;;;;;4.10;2.90;;;;;;;28.13;33.80;101050.09;106066;1262;71050;-78
2022/07/16 08:45:41;;;;;;;5.80;3.00;;;;;;;28.20;33.63;101037.64;106074;1261;73682;-74
2022/07/16 08:48:12;;;;;;;5.30;3.00;;;;;;;28.38;32.49;101046.71;106135;1263;59010;-74
2022/07/16 08:50:42;;;;;;;5.80;3.30;;;;;;;28.30;32.19;101049.30;106396;1262;59566;-78
2022/07/16 08:53:12;;;;;;;4.40;2.60;;;;;;;28.13;32.56;101046.20;105979;1263;63030;-76
2022/07/16 08:55:42;;;;;;;3.40;2.60;;;;;;;28.36;32.48;101049.12;106039;1264;61953;-76
2022/07/16 08:58:12;;;;;;;3.90;2.60;;;;;;;28.48;32.31;101045.89;106139;1261;59889;-76
2022/07/16 09:00:42;;;;;;;4.00;2.60;;;;;;;28.50;32.12;101049.42;108173;1261;63457;-77
2022/07/16 09:03:13;;;;;;;4.50;2.20;;;;;;;28.87;31.26;101049.82;108280;1261;61968;-76
2022/07/16 09:05:42;;;;;;;4.50;2.40;;;;;;;28.75;31.22;101049.31;106753;1261;61267;-78
2022/07/16 09:08:11;;;;;;;4.10;2.50;;;;;;;28.50;31.52;101051.09;106066;1263;64954;-74
2022/07/16 09:10:40;;;;;;;6.00;2.90;;;;;;;28.57;32.13;101049.32;106170;1261;72270;-75
2022/07/16 09:13:10;;;;;;;3.70;2.70;;;;;;;28.99;31.22;101044.54;106178;1263;71510;-78
2022/07/16 09:15:43;;;;;;;3.60;2.60;;;;;;;29.03;31.64;101043.74;106172;1261;63077;-78
2022/07/16 09:18:22;;;;;;;5.60;2.50;;;;;;;29.32;31.38;101042.53;105998;1261;61502;-77
2022/07/16 09:20:56;;;;;;;7.30;2.90;;;;;;;29.18;31.12;101037.48;106086;1261;61399;-79
2022/07/16 09:23:31;;;;;;;4.10;2.70;;;;;;;29.24;31.13;101032.65;106389;1261;62828;-75
2022/07/16 09:26:11;;;;;;;6.50;2.80;;;;;;;29.17;31.00;101029.89;106268;1261;61941;-77
2022/07/16 09:28:46;;;;;;;4.40;2.70;;;;;;;29.41;31.01;101030.45;106137;1261;69986;-79
2022/07/16 09:31:36;;;;;;;10.20;2.40;;;;;;;29.22;30.99;101031.44;106220;1261;62603;-77
2022/07/16 09:34:10;;;;;;;3.30;2.20;;;;;;;29.07;31.12;101026.89;106089;1261;59052;-76
2022/07/16 09:36:54;;;;;;;6.40;3.20;;;;;;;29.08;31.23;101021.77;105903;1261;59002;-76
2022/07/16 09:39:23;;;;;;;8.00;3.00;;;;;;;29.42;30.86;101013.73;106082;1261;73400;-79
2022/07/16 09:41:52;;;;;;;4.90;3.00;;;;;;;29.63;30.90;101013.36;106146;1261;62475;-78
2022/07/16 09:44:26;;;;;;;4.50;3.30;;;;;;;29.82;30.41;101013.04;106142;1263;60153;-79
2022/07/16 09:47:14;;;;;;;6.30;2.70;;;;;;;29.85;29.95;101007.46;106236;1261;73070;-76
2022/07/16 09:49:52;;;;;;;4.50;2.70;;;;;;;29.82;30.16;101006.27;106077;1261;59128;-76
2022/07/16 09:52:47;;;;;;;3.90;2.70;;;;;;;29.73;30.30;101003.06;106063;1261;60678;-79
2022/07/16 09:55:16;;;;;;;3.70;2.50;;;;;;;30.06;29.88;101003.30;106382;1261;63051;-78
2022/07/16 09:57:47;;;;;;;3.90;2.70;;;;;;;29.82;30.02;101005.86;106106;1261;72613;-78
2022/07/16 10:00:16;;;;;;;4.30;2.80;;;;;;;29.91;30.03;101003.98;106150;1263;69274;-74
2022/07/16 10:02:47;;;;;;;4.40;2.70;;;;;;;29.79;30.56;101004.30;106178;1261;74681;-78
2022/07/16 10:05:16;;;;;;;7.50;3.60;;;;;;;29.95;30.19;100999.20;106262;1261;57532;-78
2022/07/16 10:07:45;;;;;;;10.60;3.00;;;;;;;30.09;29.64;100997.45;106090;1263;57466;-80
2022/07/16 10:10:15;;;;;;;3.80;2.40;;;;;;;29.86;30.00;100997.36;106382;1261;73786;-80
2022/07/16 10:12:47;;;;;;;6.70;3.00;;;;;;;30.02;30.36;100999.73;106510;1261;63027;-76
2022/07/16 10:15:16;;;;;;;4.60;2.70;;;;;;;30.04;30.38;100997.30;105985;1263;60107;-79
2022/07/16 10:17:45;;;;;;;3.80;2.80;;;;;;;30.36;29.94;100997.08;106277;1261;73008;-78
2022/07/16 10:20:20;;;;;;;7.50;3.30;;;;;;;30.74;29.55;100990.55;106176;1261;61206;-80
2022/07/16 10:22:50;;;;;;;4.50;2.30;;;;;;;30.97;28.55;100987.25;106523;1261;61316;-80
2022/07/16 10:25:23;;;;;;;4.10;2.10;;;;;;;31.12;27.93;100980.73;106467;1259;74216;-78
2022/07/16 10:27:54;;;;;;;3.30;2.60;;;;;;;30.90;28.38;100982.27;106046;1261;545972;-83
2022/07/16 10:30:30;;;;;;;3.80;2.80;;;;;;;30.85;28.55;100976.64;106369;1261;69861;-77
2022/07/16 10:32:59;;;;;;;5.00;2.60;;;;;;;30.71;28.71;100977.73;106092;1264;64204;-80
2022/07/16 10:35:31;;;;;;;6.60;3.10;;;;;;;31.13;27.83;100967.14;106266;1263;59101;-78
2022/07/16 10:38:21;;;;;;;3.40;2.20;;;;;;;31.19;28.01;100961.02;106225;1261;59619;-79
2022/07/16 10:41:15;;;;;;;7.60;2.60;;;;;;;30.84;28.23;100962.54;106201;1263;72979;-76
2022/07/16 10:44:09;;;;;;;3.40;2.80;;;;;;;31.39;27.54;100960.70;106256;1261;71430;-78
2022/07/16 10:46:57;;;;;;;3.30;2.50;;;;;;;32.04;26.91;100958.09;106318;1261;70464;-79
2022/07/16 10:49:29;;;;;;;3.80;2.60;;;;;;;32.04;26.55;100954.58;106016;1261;62981;-79
2022/07/16 10:52:08;;;;;;;3.90;2.60;;;;;;;32.69;26.10;100947.65;106101;1261;61539;-81
2022/07/16 10:54:59;;;;;;;3.60;2.20;;;;;;;32.88;25.50;100942.70;106076;1263;58986;-75
2022/07/16 10:57:37;;;;;;;3.60;2.20;;;;;;;33.11;25.13;100939.55;106061;1261;72986;-76
2022/07/16 11:00:08;;;;;;;4.20;2.30;;;;;;;33.17;24.57;100936.21;105987;1263;61776;-76
2022/07/16 11:02:42;;;;;;;5.20;2.40;;;;;;;33.12;24.74;100934.73;106315;1261;71640;-79
2022/07/16 11:05:31;;;;;;;3.80;2.30;;;;;;;33.07;24.81;100941.77;105975;1261;73479;-79
2022/07/16 11:08:11;;;;;;;5.30;2.50;;;;;;;32.66;25.07;100934.91;106370;1261;61327;-73
2022/07/16 11:10:40;;;;;;;5.30;2.30;;;;;;;31.76;25.99;100937.85;105969;1261;62607;-77
2022/07/16 11:13:13;;;;;;;5.50;2.50;;;;;;;31.37;26.43;100936.39;106219;1261;63529;-78
2022/07/16 11:15:42;;;;;;;4.90;2.50;;;;;;;30.98;27.29;100930.15;106341;1261;72434;-78
2022/07/16 11:18:17;;;;;;;3.70;2.50;;;;;;;30.54;27.93;100923.23;106018;1263;59705;-77
2022/07/16 11:20:47;;;;;;;6.40;2.50;;;;;;;30.74;28.14;100915.63;106230;1261;71801;-76
2022/07/16 11:23:18;;;;;;;3.50;2.60;;;;;;;31.07;27.59;100912.61;106322;1261;62224;-76
2022/07/16 11:26:00;;;;;;;3.60;2.60;;;;;;;30.90;27.73;100910.62;106204;1261;59092;-77
2022/07/16 11:28:29;;;;;;;3.70;2.30;;;;;;;30.57;28.61;100916.67;106185;1263;62211;-79
2022/07/16 11:31:05;;;;;;;4.80;2.70;;;;;;;30.13;29.02;100916.06;106352;1261;70613;-78
2022/07/16 11:33:51;;;;;;;4.40;2.70;;;;;;;29.87;29.48;100916.06;106243;1261;71051;-79
2022/07/16 11:36:20;;;;;;;3.60;2.70;;;;;;;29.79;29.44;100915.48;106112;1262;63805;-75